Baltimore, Maryland
Traffic Map
Current Weather Conditions
Baltimore, Maryland
Clear
Clear
60°
Feels Like: 60°
Wind Chill: 60° Ceiling: Unl
Heat Index: 60° Visibility: 10mi
Dew Point: 43° Wind: 8mph
Humidity: 53% Direction: 220° (SW)
Pressure: 29.68in Gusts: 0mph
Raw Report DataKBWI 260354Z 22007KT 10SM CLR 16/06 A2968 RMK AO2 SLP050 T01560061
Traffic Incident Summary
Active as of:
Severity:
Category:
InformationThere was an issue retrieving the traffic information for this location. Please try a different location or try again shortly.
Advertisements
Track Severe Weather on mobile